地図

経路データ

SID SEASON NUMBER BASIN SUBBASIN NAME ISO_TIME NATURE LAT LON WMO_WIND WMO_PRES WMO_AGENCY TRACK_TYPE DIST2LAND LANDFALL IFLAG USA_AGENCY USA_ATCF_ID USA_LAT USA_LON USA_RECORD USA_STATUS USA_WIND USA_PRES USA_SSHS USA_R34_NE USA_R34_SE USA_R34_SW USA_R34_NW USA_R50_NE USA_R50_SE USA_R50_SW USA_R50_NW USA_R64_NE USA_R64_SE USA_R64_SW USA_R64_NW USA_POCI USA_ROCI USA_RMW USA_EYE TOKYO_LAT TOKYO_LON TOKYO_GRADE TOKYO_WIND TOKYO_PRES TOKYO_R50_DIR TOKYO_R50_LONG TOKYO_R50_SHORT TOKYO_R30_DIR TOKYO_R30_LONG TOKYO_R30_SHORT TOKYO_LAND CMA_LAT CMA_LON CMA_CAT CMA_WIND CMA_PRES HKO_LAT HKO_LON HKO_CAT HKO_WIND HKO_PRES NEWDELHI_LAT NEWDELHI_LON NEWDELHI_GRADE NEWDELHI_WIND NEWDELHI_PRES NEWDELHI_CI NEWDELHI_DP NEWDELHI_POCI REUNION_LAT REUNION_LON REUNION_TYPE REUNION_WIND REUNION_PRES REUNION_TNUM REUNION_CI REUNION_RMW REUNION_R34_NE REUNION_R34_SE REUNION_R34_SW REUNION_R34_NW REUNION_R50_NE REUNION_R50_SE REUNION_R50_SW REUNION_R50_NW REUNION_R64_NE REUNION_R64_SE REUNION_R64_SW REUNION_R64_NW BOM_LAT BOM_LON BOM_TYPE BOM_WIND BOM_PRES BOM_TNUM BOM_CI BOM_RMW BOM_R34_NE BOM_R34_SE BOM_R34_SW BOM_R34_NW BOM_R50_NE BOM_R50_SE BOM_R50_SW BOM_R50_NW BOM_R64_NE BOM_R64_SE BOM_R64_SW BOM_R64_NW BOM_ROCI BOM_POCI BOM_EYE BOM_POS_METHOD BOM_PRES_METHOD NADI_LAT NADI_LON NADI_CAT NADI_WIND NADI_PRES WELLINGTON_LAT WELLINGTON_LON WELLINGTON_WIND WELLINGTON_PRES DS824_LAT DS824_LON DS824_STAGE DS824_WIND DS824_PRES TD9636_LAT TD9636_LON TD9636_STAGE TD9636_WIND TD9636_PRES TD9635_LAT TD9635_LON TD9635_WIND TD9635_PRES TD9635_ROCI NEUMANN_LAT NEUMANN_LON NEUMANN_CLASS NEUMANN_WIND NEUMANN_PRES MLC_LAT MLC_LON MLC_CLASS MLC_WIND MLC_PRES USA_GUST BOM_GUST BOM_GUST_PER REUNION_GUST REUNION_GUST_PER USA_SEAHGT USA_SEARAD_NE USA_SEARAD_SE USA_SEARAD_SW USA_SEARAD_NW STORM_SPEED STORM_DIR
1991302N44301 1991 87 NA NA NOT_NAMED 1991-10-28 18:00:00 ET 44.0000 -59.0000 30 1006 hurdat_atl main 209 209 O_____________ hurdat_atl AL121991 44.0000 -59.0000 EX 30 1006 -4 15 141
1991302N44301 1991 87 NA NA NOT_NAMED 1991-10-28 21:00:00 ET 43.4233 -58.3597 main 291 291 P_____________ AL121991 43.4233 -58.3597 EX 35 1002 -4 15 133
1991302N44301 1991 87 NA NA NOT_NAMED 1991-10-29 00:00:00 ET 43.0000 -57.5000 40 999 hurdat_atl main 369 369 O_____________ hurdat_atl AL121991 43.0000 -57.5000 EX 40 999 -4 16 113
1991302N44301 1991 87 NA NA NOT_NAMED 1991-10-29 03:00:00 ET 42.7903 -56.3502 main 444 444 P_____________ AL121991 42.7903 -56.3502 EX 42 995 -4 15 109
1991302N44301 1991 87 NA NA NOT_NAMED 1991-10-29 06:00:00 ET 42.5000 -55.5000 45 992 hurdat_atl main 478 478 O_____________ hurdat_atl AL121991 42.5000 -55.5000 EX 45 992 -4 12 147
1991302N44301 1991 87 NA NA NOT_NAMED 1991-10-29 09:00:00 ET 41.8230 -55.4887 main 554 554 P_____________ AL121991 41.8230 -55.4887 EX 47 991 -4 15 194
1991302N44301 1991 87 NA NA NOT_NAMED 1991-10-29 12:00:00 ET 41.0000 -56.0000 50 990 hurdat_atl main 622 622 O_____________ hurdat_atl AL121991 41.0000 -56.0000 EX 50 990 -4 19 208
1991302N44301 1991 87 NA NA NOT_NAMED 1991-10-29 15:00:00 ET 40.1748 -56.6403 main 665 665 P_____________ AL121991 40.1748 -56.6403 EX 50 988 -4 19 217
1991302N44301 1991 87 NA NA NOT_NAMED 1991-10-29 18:00:00 ET 39.5000 -57.5000 50 986 hurdat_atl main 698 695 O_____________ hurdat_atl AL121991 39.5000 -57.5000 EX 50 986 -4 17 234
1991302N44301 1991 87 NA NA NOT_NAMED 1991-10-29 21:00:00 ET 39.1376 -58.4611 main 711 693 P_____________ AL121991 39.1376 -58.4611 EX 52 983 -4 16 252
1991302N44301 1991 87 NA NA NOT_NAMED 1991-10-30 00:00:00 ET 39.0000 -59.5000 55 981 hurdat_atl main 689 645 O_____________ hurdat_atl AL121991 39.0000 -59.5000 EX 55 981 -4 16 264
1991302N44301 1991 87 NA NA NOT_NAMED 1991-10-30 03:00:00 ET 38.9617 -60.4984 main 640 596 P_____________ AL121991 38.9617 -60.4984 EX 57 979 -4 16 270
1991302N44301 1991 87 NA NA NOT_NAMED 1991-10-30 06:00:00 ET 39.0000 -61.5000 60 977 hurdat_atl main 592 555 O_____________ hurdat_atl AL121991 39.0000 -61.5000 EX 60 977 -4 15 270
1991302N44301 1991 87 NA NA NOT_NAMED 1991-10-30 09:00:00 ET 38.9536 -62.4796 main 552 525 P_____________ AL121991 38.9536 -62.4796 EX 60 974 -4 16 270
1991302N44301 1991 87 NA NA NOT_NAMED 1991-10-30 12:00:00 ET 39.0000 -63.5000 60 972 hurdat_atl main 522 471 O_____________ hurdat_atl AL121991 39.0000 -63.5000 EX 60 972 -4 17 281
1991302N44301 1991 87 NA NA NOT_NAMED 1991-10-30 15:00:00 ET 39.2686 -64.5959 main 470 430 P_____________ AL121991 39.2686 -64.5959 EX 60 975 -4 19 289
1991302N44301 1991 87 NA NA NOT_NAMED 1991-10-30 18:00:00 ET 39.6000 -65.8000 60 978 hurdat_atl main 423 315 O_____________ hurdat_atl AL121991 39.6000 -65.8000 EX 60 978 -4 21 288
1991302N44301 1991 87 NA NA NOT_NAMED 1991-10-30 21:00:00 ET 39.9198 -67.1303 main 315 231 P_____________ AL121991 39.9198 -67.1303 EX 57 980 -4 21 281
1991302N44301 1991 87 NA NA NOT_NAMED 1991-10-31 00:00:00 ET 40.0000 -68.5000 55 982 hurdat_atl main 227 210 O_____________ hurdat_atl AL121991 40.0000 -68.5000 EX 55 982 -4 22 262
1991302N44301 1991 87 NA NA NOT_NAMED 1991-10-31 03:00:00 ET 39.6290 -69.9217 main 221 217 P_____________ AL121991 39.6290 -69.9217 EX 55 985 -4 22 243
1991302N44301 1991 87 NA NA NOT_NAMED 1991-10-31 06:00:00 ET 39.0000 -71.0000 55 988 hurdat_atl main 242 242 O_____________ hurdat_atl AL121991 39.0000 -71.0000 EX 55 988 -4 17 223
1991302N44301 1991 87 NA NA NOT_NAMED 1991-10-31 09:00:00 ET 38.3478 -71.4348 main 283 276 P_____________ AL121991 38.3478 -71.4348 EX 52 990 -4 14 197
1991302N44301 1991 87 NA NA NOT_NAMED 1991-10-31 12:00:00 ET 37.7000 -71.5000 50 992 hurdat_atl main 314 314 O_____________ hurdat_atl AL121991 37.7000 -71.5000 EX 50 992 -4 12 188
1991302N44301 1991 87 NA NA NOT_NAMED 1991-10-31 15:00:00 ET 37.1541 -71.6507 main 322 322 P_____________ AL121991 37.1541 -71.6507 EX 45 994 -4 10 179
1991302N44301 1991 87 NA NA NOT_NAMED 1991-10-31 18:00:00 SS 36.7000 -71.5000 40 996 hurdat_atl main 363 363 O_____________ hurdat_atl AL121991 36.7000 -71.5000 SS 40 996 -2 11 145
1991302N44301 1991 87 NA NA NOT_NAMED 1991-10-31 21:00:00 SS 36.2609 -70.8598 main 416 416 P_____________ AL121991 36.2609 -70.8598 SS 45 995 -2 14 120
1991302N44301 1991 87 NA NA NOT_NAMED 1991-11-01 00:00:00 SS 36.0000 -70.0000 50 995 hurdat_atl main 494 494 O_____________ hurdat_atl AL121991 36.0000 -70.0000 SS 50 995 -2 13 102
1991302N44301 1991 87 NA NA NOT_NAMED 1991-11-01 03:00:00 SS 35.9871 -69.2504 main 557 557 P_____________ AL121991 35.9871 -69.2504 SS 52 994 -2 12 81
1991302N44301 1991 87 NA NA NOT_NAMED 1991-11-01 06:00:00 TS 36.2000 -68.5000 55 993 hurdat_atl main 619 608 O_____________ hurdat_atl AL121991 36.2000 -68.5000 TS 55 993 0 14 67
1991302N44301 1991 87 NA NA NOT_NAMED 1991-11-01 09:00:00 TS 36.5256 -67.6763 main 611 582 P_____________ AL121991 36.5256 -67.6763 TS 57 990 0 14 56
1991302N44301 1991 87 NA NA NOT_NAMED 1991-11-01 12:00:00 TS 37.0000 -67.0000 60 988 hurdat_atl main 582 545 O_____________ hurdat_atl AL121991 37.0000 -67.0000 TS 60 988 0 13 37
1991302N44301 1991 87 NA NA NOT_NAMED 1991-11-01 15:00:00 TS 37.5615 -66.6954 main 536 490 P_____________ AL121991 37.5615 -66.6954 TS 62 984 0 13 18
1991302N44301 1991 87 NA NA NOT_NAMED 1991-11-01 18:00:00 TS 38.2000 -66.5000 65 980 hurdat_atl main 490 463 O_____________ hurdat_atl AL121991 38.2000 -66.5000 HU 65 980 1 13 20
1991302N44301 1991 87 NA NA NOT_NAMED 1991-11-01 21:00:00 TS 38.7825 -66.1358 main 461 436 P_____________ AL121991 38.7825 -66.1358 HU 65 980 1 14 26
1991302N44301 1991 87 NA NA NOT_NAMED 1991-11-02 00:00:00 TS 39.5000 -65.7000 65 981 hurdat_atl main 436 344 O_____________ hurdat_atl AL121991 39.5000 -65.7000 HU 65 981 1 18 23
1991302N44301 1991 87 NA NA NOT_NAMED 1991-11-02 03:00:00 TS 40.4675 -65.2217 main 333 226 P_____________ AL121991 40.4675 -65.2217 HU 62 984 0 22 20
1991302N44301 1991 87 NA NA NOT_NAMED 1991-11-02 06:00:00 TS 41.6000 -64.7000 60 988 hurdat_atl main 216 123 O_____________ hurdat_atl AL121991 41.6000 -64.7000 TS 60 988 0 25 20
1991302N44301 1991 87 NA NA NOT_NAMED 1991-11-02 09:00:00 TS 42.8509 -64.0665 main 114 55 P_____________ AL121991 42.8509 -64.0665 TS 55 992 0 25 19
1991302N44301 1991 87 NA NA NOT_NAMED 1991-11-02 12:00:00 TS 44.0000 -63.6000 50 996 hurdat_atl main 44 0 O_____________ hurdat_atl AL121991 44.0000 -63.6000 TS 50 996 0 22 13
1991302N44301 1991 87 NA NA NOT_NAMED 1991-11-02 14:00:00 TS 44.6000 -63.5000 45 998 hurdat_atl main 7 0 O_____________ hurdat_atl AL121991 44.6000 -63.5000 L TS 45 998 0 20 10
1991302N44301 1991 87 NA NA NOT_NAMED 1991-11-02 15:00:00 TS 44.9640 -63.3638 main 0 0 P_____________ AL121991 44.9640 -63.3638 TS 41 999 0 27 21
1991302N44301 1991 87 NA NA NOT_NAMED 1991-11-02 18:00:00 TS 46.3000 -62.6000 30 1005 hurdat_atl main 0 O_____________ hurdat_atl AL121991 46.3000 -62.6000 TD 30 1005 -1 29 22

IBTrACS Databaseについて

本データベースは、米国NOAAが公開する1842年以降の世界の熱帯低気圧のベストトラックデータアーカイブInternational Best Track Archive for Climate Stewardship (IBTrACS)を、ウェブで閲覧しやすい形式に変換したものです。

最終更新日:2021-11-26